sensor_id;sensor_type;location;lat;lon;timestamp;temperature;humidity
1391;DHT22;690;51.454;7.194;2023-05-07T00:01:33;12.60;99.90
1391;DHT22;690;51.454;7.194;2023-05-07T00:04:02;12.60;99.90
1391;DHT22;690;51.454;7.194;2023-05-07T00:06:29;12.60;99.90
1391;DHT22;690;51.454;7.194;2023-05-07T00:08:58;12.60;99.90
1391;DHT22;690;51.454;7.194;2023-05-07T00:11:28;12.60;99.90
1391;DHT22;690;51.454;7.194;2023-05-07T00:13:54;12.60;99.90
1391;DHT22;690;51.454;7.194;2023-05-07T00:16:21;12.60;99.90
1391;DHT22;690;51.454;7.194;2023-05-07T00:18:51;12.60;99.90
1391;DHT22;690;51.454;7.194;2023-05-07T00:21:19;12.60;99.90
1391;DHT22;690;51.454;7.194;2023-05-07T00:23:47;12.60;99.90
1391;DHT22;690;51.454;7.194;2023-05-07T00:26:13;12.60;99.90
1391;DHT22;690;51.454;7.194;2023-05-07T00:28:42;12.60;99.90
1391;DHT22;690;51.454;7.194;2023-05-07T00:31:08;12.60;99.90
1391;DHT22;690;51.454;7.194;2023-05-07T00:33:35;12.60;99.90
1391;DHT22;690;51.454;7.194;2023-05-07T00:36:08;12.60;99.90
1391;DHT22;690;51.454;7.194;2023-05-07T00:38:38;12.50;99.90
1391;DHT22;690;51.454;7.194;2023-05-07T00:41:05;12.50;99.90
1391;DHT22;690;51.454;7.194;2023-05-07T00:43:33;12.50;99.90
1391;DHT22;690;51.454;7.194;2023-05-07T00:46:02;12.50;99.90
1391;DHT22;690;51.454;7.194;2023-05-07T00:48:28;12.50;99.90
1391;DHT22;690;51.454;7.194;2023-05-07T00:50:56;12.50;99.90
1391;DHT22;690;51.454;7.194;2023-05-07T00:53:25;12.40;99.90
1391;DHT22;690;51.454;7.194;2023-05-07T00:55:52;12.40;99.90
1391;DHT22;690;51.454;7.194;2023-05-07T00:58:20;12.40;99.90
1391;DHT22;690;51.454;7.194;2023-05-07T01:00:47;12.40;1.00
1391;DHT22;690;51.454;7.194;2023-05-07T01:03:18;12.40;1.00
1391;DHT22;690;51.454;7.194;2023-05-07T01:05:48;12.30;1.00
1391;DHT22;690;51.454;7.194;2023-05-07T01:08:15;12.30;1.00
1391;DHT22;690;51.454;7.194;2023-05-07T01:10:43;12.30;1.00
1391;DHT22;690;51.454;7.194;2023-05-07T01:13:13;12.20;1.00
1391;DHT22;690;51.454;7.194;2023-05-07T01:15:45;12.20;1.00
1391;DHT22;690;51.454;7.194;2023-05-07T01:18:12;12.20;1.00
1391;DHT22;690;51.454;7.194;2023-05-07T01:20:41;12.20;1.00
1391;DHT22;690;51.454;7.194;2023-05-07T01:23:15;12.20;1.00
1391;DHT22;690;51.454;7.194;2023-05-07T01:25:53;12.20;1.00
1391;DHT22;690;51.454;7.194;2023-05-07T01:28:20;12.20;1.00
1391;DHT22;690;51.454;7.194;2023-05-07T01:30:51;12.20;1.00
1391;DHT22;690;51.454;7.194;2023-05-07T01:33:20;12.20;1.00
1391;DHT22;690;51.454;7.194;2023-05-07T01:35:50;12.20;1.00
1391;DHT22;690;51.454;7.194;2023-05-07T01:38:21;12.20;1.00
1391;DHT22;690;51.454;7.194;2023-05-07T01:40:48;12.20;1.00
1391;DHT22;690;51.454;7.194;2023-05-07T01:43:17;12.20;1.00
1391;DHT22;690;51.454;7.194;2023-05-07T01:45:44;12.20;1.00
1391;DHT22;690;51.454;7.194;2023-05-07T01:48:13;12.20;1.00
1391;DHT22;690;51.454;7.194;2023-05-07T01:50:41;12.30;1.00
1391;DHT22;690;51.454;7.194;2023-05-07T01:53:09;12.30;1.00
1391;DHT22;690;51.454;7.194;2023-05-07T01:55:37;12.30;1.00
1391;DHT22;690;51.454;7.194;2023-05-07T01:58:05;12.40;1.00
1391;DHT22;690;51.454;7.194;2023-05-07T02:00:33;12.40;1.00
1391;DHT22;690;51.454;7.194;2023-05-07T02:03:00;12.40;1.00
1391;DHT22;690;51.454;7.194;2023-05-07T02:05:28;12.30;1.00
1391;DHT22;690;51.454;7.194;2023-05-07T02:07:55;12.30;1.00
1391;DHT22;690;51.454;7.194;2023-05-07T02:10:22;12.30;1.00
1391;DHT22;690;51.454;7.194;2023-05-07T02:12:50;12.20;1.00
1391;DHT22;690;51.454;7.194;2023-05-07T02:15:27;12.20;1.00
1391;DHT22;690;51.454;7.194;2023-05-07T02:18:07;12.20;1.00
1391;DHT22;690;51.454;7.194;2023-05-07T02:20:35;12.20;1.00
1391;DHT22;690;51.454;7.194;2023-05-07T02:23:02;12.20;1.00
1391;DHT22;690;51.454;7.194;2023-05-07T02:25:28;12.20;1.00
1391;DHT22;690;51.454;7.194;2023-05-07T02:27:57;12.20;1.00
1391;DHT22;690;51.454;7.194;2023-05-07T02:30:26;12.20;1.00
1391;DHT22;690;51.454;7.194;2023-05-07T02:32:53;12.30;1.00
1391;DHT22;690;51.454;7.194;2023-05-07T02:35:20;12.30;1.00
1391;DHT22;690;51.454;7.194;2023-05-07T02:37:47;12.30;1.00
1391;DHT22;690;51.454;7.194;2023-05-07T02:40:17;12.20;1.00
1391;DHT22;690;51.454;7.194;2023-05-07T02:42:43;12.20;1.00
1391;DHT22;690;51.454;7.194;2023-05-07T02:45:12;12.20;1.00
1391;DHT22;690;51.454;7.194;2023-05-07T02:47:40;12.20;1.00
1391;DHT22;690;51.454;7.194;2023-05-07T02:50:07;12.30;1.00
1391;DHT22;690;51.454;7.194;2023-05-07T02:52:36;12.30;1.00
1391;DHT22;690;51.454;7.194;2023-05-07T02:55:03;12.30;1.00
1391;DHT22;690;51.454;7.194;2023-05-07T02:57:30;12.30;1.00
1391;DHT22;690;51.454;7.194;2023-05-07T02:59:58;12.20;1.00
1391;DHT22;690;51.454;7.194;2023-05-07T03:02:26;12.20;1.00
1391;DHT22;690;51.454;7.194;2023-05-07T03:04:53;12.20;1.00
1391;DHT22;690;51.454;7.194;2023-05-07T03:07:20;12.20;1.00
1391;DHT22;690;51.454;7.194;2023-05-07T03:09:46;12.20;1.00
1391;DHT22;690;51.454;7.194;2023-05-07T03:12:14;12.20;1.00
1391;DHT22;690;51.454;7.194;2023-05-07T03:14:43;12.20;1.00
1391;DHT22;690;51.454;7.194;2023-05-07T03:17:09;12.20;1.00
1391;DHT22;690;51.454;7.194;2023-05-07T03:19:40;12.20;1.00
1391;DHT22;690;51.454;7.194;2023-05-07T03:22:07;12.20;1.00
1391;DHT22;690;51.454;7.194;2023-05-07T03:24:37;12.20;1.00
1391;DHT22;690;51.454;7.194;2023-05-07T03:27:06;12.20;1.00
1391;DHT22;690;51.454;7.194;2023-05-07T03:29:33;12.20;1.00
1391;DHT22;690;51.454;7.194;2023-05-07T03:32:00;12.20;1.00
1391;DHT22;690;51.454;7.194;2023-05-07T03:34:27;12.20;1.00
1391;DHT22;690;51.454;7.194;2023-05-07T03:36:55;12.20;1.00
1391;DHT22;690;51.454;7.194;2023-05-07T03:39:22;12.10;1.00
1391;DHT22;690;51.454;7.194;2023-05-07T03:41:49;12.20;1.00
1391;DHT22;690;51.454;7.194;2023-05-07T03:44:17;12.20;1.00
1391;DHT22;690;51.454;7.194;2023-05-07T03:46:44;12.20;1.00
1391;DHT22;690;51.454;7.194;2023-05-07T03:49:10;12.20;1.00
1391;DHT22;690;51.454;7.194;2023-05-07T03:51:37;12.10;1.00
1391;DHT22;690;51.454;7.194;2023-05-07T03:54:07;12.20;1.00
1391;DHT22;690;51.454;7.194;2023-05-07T03:56:34;12.10;1.00
1391;DHT22;690;51.454;7.194;2023-05-07T03:59:01;12.10;1.00
1391;DHT22;690;51.454;7.194;2023-05-07T04:01:28;12.10;1.00
1391;DHT22;690;51.454;7.194;2023-05-07T04:03:56;12.10;1.00
1391;DHT22;690;51.454;7.194;2023-05-07T04:06:23;12.10;1.00
1391;DHT22;690;51.454;7.194;2023-05-07T04:08:52;12.10;1.00
1391;DHT22;690;51.454;7.194;2023-05-07T04:11:25;12.10;1.00
1391;DHT22;690;51.454;7.194;2023-05-07T04:13:53;12.10;1.00
1391;DHT22;690;51.454;7.194;2023-05-07T04:16:20;12.00;1.00
1391;DHT22;690;51.454;7.194;2023-05-07T04:18:50;12.00;1.00
1391;DHT22;690;51.454;7.194;2023-05-07T04:21:17;12.00;1.00
1391;DHT22;690;51.454;7.194;2023-05-07T04:23:45;12.00;1.00
1391;DHT22;690;51.454;7.194;2023-05-07T04:26:12;12.00;1.00
1391;DHT22;690;51.454;7.194;2023-05-07T04:28:43;12.00;1.00
1391;DHT22;690;51.454;7.194;2023-05-07T04:31:12;12.00;1.00
1391;DHT22;690;51.454;7.194;2023-05-07T04:33:38;12.00;1.00
1391;DHT22;690;51.454;7.194;2023-05-07T04:36:05;12.00;1.00
1391;DHT22;690;51.454;7.194;2023-05-07T04:38:34;11.90;1.00
1391;DHT22;690;51.454;7.194;2023-05-07T04:41:05;11.90;1.00
1391;DHT22;690;51.454;7.194;2023-05-07T04:43:35;11.90;1.00
1391;DHT22;690;51.454;7.194;2023-05-07T04:46:03;12.00;1.00
1391;DHT22;690;51.454;7.194;2023-05-07T04:48:30;12.00;1.00
1391;DHT22;690;51.454;7.194;2023-05-07T04:50:57;12.10;1.00
1391;DHT22;690;51.454;7.194;2023-05-07T04:53:26;12.10;1.00
1391;DHT22;690;51.454;7.194;2023-05-07T04:55:56;12.10;1.00
1391;DHT22;690;51.454;7.194;2023-05-07T04:58:23;12.20;1.00
1391;DHT22;690;51.454;7.194;2023-05-07T05:00:50;12.30;1.00
1391;DHT22;690;51.454;7.194;2023-05-07T05:03:19;12.40;1.00
1391;DHT22;690;51.454;7.194;2023-05-07T05:05:46;12.50;1.00
1391;DHT22;690;51.454;7.194;2023-05-07T05:08:15;12.60;1.00
1391;DHT22;690;51.454;7.194;2023-05-07T05:10:44;12.60;1.00
1391;DHT22;690;51.454;7.194;2023-05-07T05:13:11;12.60;1.00
1391;DHT22;690;51.454;7.194;2023-05-07T05:15:38;12.70;1.00
1391;DHT22;690;51.454;7.194;2023-05-07T05:18:05;12.60;1.00
1391;DHT22;690;51.454;7.194;2023-05-07T05:20:35;12.60;1.00
1391;DHT22;690;51.454;7.194;2023-05-07T05:23:02;12.70;1.00
1391;DHT22;690;51.454;7.194;2023-05-07T05:25:29;12.70;1.00
1391;DHT22;690;51.454;7.194;2023-05-07T05:27:57;12.70;1.00
1391;DHT22;690;51.454;7.194;2023-05-07T05:30:26;12.60;1.00
1391;DHT22;690;51.454;7.194;2023-05-07T05:32:53;12.70;1.00
1391;DHT22;690;51.454;7.194;2023-05-07T05:35:20;12.70;1.00
1391;DHT22;690;51.454;7.194;2023-05-07T05:37:48;12.70;1.00
1391;DHT22;690;51.454;7.194;2023-05-07T05:40:15;12.70;1.00
1391;DHT22;690;51.454;7.194;2023-05-07T05:42:42;12.70;1.00
1391;DHT22;690;51.454;7.194;2023-05-07T05:45:09;12.80;1.00
1391;DHT22;690;51.454;7.194;2023-05-07T05:47:40;12.80;1.00
1391;DHT22;690;51.454;7.194;2023-05-07T05:50:09;12.90;1.00
1391;DHT22;690;51.454;7.194;2023-05-07T05:52:36;12.90;1.00
1391;DHT22;690;51.454;7.194;2023-05-07T05:55:05;12.90;1.00
1391;DHT22;690;51.454;7.194;2023-05-07T05:57:34;13.00;1.00
1391;DHT22;690;51.454;7.194;2023-05-07T06:00:01;13.00;1.00
1391;DHT22;690;51.454;7.194;2023-05-07T06:02:30;13.10;1.00
1391;DHT22;690;51.454;7.194;2023-05-07T06:04:57;13.20;1.00
1391;DHT22;690;51.454;7.194;2023-05-07T06:07:23;13.30;1.00
1391;DHT22;690;51.454;7.194;2023-05-07T06:09:50;13.40;1.00
1391;DHT22;690;51.454;7.194;2023-05-07T06:12:18;13.40;1.00
1391;DHT22;690;51.454;7.194;2023-05-07T06:14:46;13.50;1.00
1391;DHT22;690;51.454;7.194;2023-05-07T06:17:13;13.70;1.00
1391;DHT22;690;51.454;7.194;2023-05-07T06:19:40;13.90;1.00
1391;DHT22;690;51.454;7.194;2023-05-07T06:22:07;14.00;1.00
1391;DHT22;690;51.454;7.194;2023-05-07T06:24:34;14.30;1.00
1391;DHT22;690;51.454;7.194;2023-05-07T06:27:01;14.50;1.00
1391;DHT22;690;51.454;7.194;2023-05-07T06:29:31;14.70;1.00
1391;DHT22;690;51.454;7.194;2023-05-07T06:32:06;14.80;99.90
1391;DHT22;690;51.454;7.194;2023-05-07T06:34:33;14.80;99.90
1391;DHT22;690;51.454;7.194;2023-05-07T06:37:00;15.00;99.90
1391;DHT22;690;51.454;7.194;2023-05-07T06:39:27;15.00;99.90
1391;DHT22;690;51.454;7.194;2023-05-07T06:41:54;15.20;1.00
1391;DHT22;690;51.454;7.194;2023-05-07T06:44:21;15.30;1.00
1391;DHT22;690;51.454;7.194;2023-05-07T06:46:49;15.40;99.90
1391;DHT22;690;51.454;7.194;2023-05-07T06:49:16;15.50;99.90
1391;DHT22;690;51.454;7.194;2023-05-07T06:51:43;15.60;25.60
1391;DHT22;690;51.454;7.194;2023-05-07T06:54:10;15.70;99.90
1391;DHT22;690;51.454;7.194;2023-05-07T06:56:37;15.80;1.00
1391;DHT22;690;51.454;7.194;2023-05-07T06:59:04;15.80;99.90
1391;DHT22;690;51.454;7.194;2023-05-07T07:01:32;15.80;99.90
1391;DHT22;690;51.454;7.194;2023-05-07T07:04:01;15.90;34.70
1391;DHT22;690;51.454;7.194;2023-05-07T07:06:28;16.00;1.00
1391;DHT22;690;51.454;7.194;2023-05-07T07:08:57;15.90;99.90
1391;DHT22;690;51.454;7.194;2023-05-07T07:11:24;16.00;99.90
1391;DHT22;690;51.454;7.194;2023-05-07T07:13:51;16.00;99.90
1391;DHT22;690;51.454;7.194;2023-05-07T07:16:19;16.10;99.90
1391;DHT22;690;51.454;7.194;2023-05-07T07:18:46;16.20;12.40
1391;DHT22;690;51.454;7.194;2023-05-07T07:21:15;16.30;1.00
1391;DHT22;690;51.454;7.194;2023-05-07T07:23:43;16.30;1.00
1391;DHT22;690;51.454;7.194;2023-05-07T07:26:10;16.40;99.90
1391;DHT22;690;51.454;7.194;2023-05-07T07:28:42;16.30;99.90
1391;DHT22;690;51.454;7.194;2023-05-07T07:31:10;16.30;99.90
1391;DHT22;690;51.454;7.194;2023-05-07T07:33:36;16.30;99.90
1391;DHT22;690;51.454;7.194;2023-05-07T07:36:05;16.30;99.90
1391;DHT22;690;51.454;7.194;2023-05-07T07:38:34;16.40;99.90
1391;DHT22;690;51.454;7.194;2023-05-07T07:41:01;16.30;99.90
1391;DHT22;690;51.454;7.194;2023-05-07T07:43:28;16.30;99.90
1391;DHT22;690;51.454;7.194;2023-05-07T07:45:55;16.30;99.90
1391;DHT22;690;51.454;7.194;2023-05-07T07:48:22;16.40;99.90
1391;DHT22;690;51.454;7.194;2023-05-07T07:50:49;16.40;99.90
1391;DHT22;690;51.454;7.194;2023-05-07T07:53:16;16.40;99.90
1391;DHT22;690;51.454;7.194;2023-05-07T07:55:45;16.40;99.90
1391;DHT22;690;51.454;7.194;2023-05-07T07:58:11;16.50;99.90
1391;DHT22;690;51.454;7.194;2023-05-07T08:00:38;16.60;74.00
1391;DHT22;690;51.454;7.194;2023-05-07T08:03:09;16.80;39.40
1391;DHT22;690;51.454;7.194;2023-05-07T08:05:36;17.00;17.80
1391;DHT22;690;51.454;7.194;2023-05-07T08:08:04;17.20;1.00
1391;DHT22;690;51.454;7.194;2023-05-07T08:10:31;17.30;1.00
1391;DHT22;690;51.454;7.194;2023-05-07T08:13:01;17.40;1.00
1391;DHT22;690;51.454;7.194;2023-05-07T08:15:29;17.40;1.00
1391;DHT22;690;51.454;7.194;2023-05-07T08:17:56;17.40;1.00
1391;DHT22;690;51.454;7.194;2023-05-07T08:20:23;17.40;1.00
1391;DHT22;690;51.454;7.194;2023-05-07T08:22:51;17.20;1.00
1391;DHT22;690;51.454;7.194;2023-05-07T08:25:18;17.20;1.00
1391;DHT22;690;51.454;7.194;2023-05-07T08:27:45;17.20;1.00
1391;DHT22;690;51.454;7.194;2023-05-07T08:30:14;17.20;1.00
1391;DHT22;690;51.454;7.194;2023-05-07T08:32:41;17.30;1.00
1391;DHT22;690;51.454;7.194;2023-05-07T08:35:09;17.50;1.00
1391;DHT22;690;51.454;7.194;2023-05-07T08:37:36;17.50;1.00
1391;DHT22;690;51.454;7.194;2023-05-07T08:40:03;17.60;1.00
1391;DHT22;690;51.454;7.194;2023-05-07T08:42:32;17.60;1.00
1391;DHT22;690;51.454;7.194;2023-05-07T08:45:03;17.70;1.00
1391;DHT22;690;51.454;7.194;2023-05-07T08:47:38;17.70;1.00
1391;DHT22;690;51.454;7.194;2023-05-07T08:50:07;17.80;1.00
1391;DHT22;690;51.454;7.194;2023-05-07T08:52:35;17.90;1.00
1391;DHT22;690;51.454;7.194;2023-05-07T08:55:03;18.00;1.00
1391;DHT22;690;51.454;7.194;2023-05-07T08:57:30;18.00;1.00
1391;DHT22;690;51.454;7.194;2023-05-07T08:59:57;18.00;1.00
1391;DHT22;690;51.454;7.194;2023-05-07T09:02:24;18.00;1.00
1391;DHT22;690;51.454;7.194;2023-05-07T09:04:52;18.10;1.00
1391;DHT22;690;51.454;7.194;2023-05-07T09:07:19;18.10;1.00
1391;DHT22;690;51.454;7.194;2023-05-07T09:09:46;18.20;1.00
1391;DHT22;690;51.454;7.194;2023-05-07T09:12:17;18.20;1.00
1391;DHT22;690;51.454;7.194;2023-05-07T09:14:45;18.20;1.00
1391;DHT22;690;51.454;7.194;2023-05-07T09:17:12;18.10;1.00
1391;DHT22;690;51.454;7.194;2023-05-07T09:19:40;18.20;1.00
1391;DHT22;690;51.454;7.194;2023-05-07T09:22:08;18.20;1.00
1391;DHT22;690;51.454;7.194;2023-05-07T09:24:35;18.30;1.00
1391;DHT22;690;51.454;7.194;2023-05-07T09:27:03;18.30;1.00
1391;DHT22;690;51.454;7.194;2023-05-07T09:29:30;18.30;1.00
1391;DHT22;690;51.454;7.194;2023-05-07T09:32:00;18.30;1.00
1391;DHT22;690;51.454;7.194;2023-05-07T09:34:28;18.20;1.00
1391;DHT22;690;51.454;7.194;2023-05-07T09:36:56;18.20;1.00
1391;DHT22;690;51.454;7.194;2023-05-07T09:39:25;18.30;1.00
1391;DHT22;690;51.454;7.194;2023-05-07T09:41:52;18.50;1.00
1391;DHT22;690;51.454;7.194;2023-05-07T09:44:20;18.60;1.00
1391;DHT22;690;51.454;7.194;2023-05-07T09:46:53;18.60;1.00
1391;DHT22;690;51.454;7.194;2023-05-07T09:49:22;18.70;1.00
1391;DHT22;690;51.454;7.194;2023-05-07T09:51:51;18.70;1.00
1391;DHT22;690;51.454;7.194;2023-05-07T09:54:18;18.80;1.00
1391;DHT22;690;51.454;7.194;2023-05-07T09:56:48;18.90;1.00
1391;DHT22;690;51.454;7.194;2023-05-07T09:59:16;18.90;1.00
1391;DHT22;690;51.454;7.194;2023-05-07T10:01:43;18.90;1.00
1391;DHT22;690;51.454;7.194;2023-05-07T10:04:11;19.10;1.00
1391;DHT22;690;51.454;7.194;2023-05-07T10:06:40;19.10;1.00
1391;DHT22;690;51.454;7.194;2023-05-07T10:09:07;19.30;1.00
1391;DHT22;690;51.454;7.194;2023-05-07T10:11:39;19.50;1.00
1391;DHT22;690;51.454;7.194;2023-05-07T10:14:07;19.60;1.00
1391;DHT22;690;51.454;7.194;2023-05-07T10:16:35;19.70;99.90
1391;DHT22;690;51.454;7.194;2023-05-07T10:19:03;19.60;99.90
1391;DHT22;690;51.454;7.194;2023-05-07T10:21:30;19.50;99.90
1391;DHT22;690;51.454;7.194;2023-05-07T10:24:04;19.50;99.90
1391;DHT22;690;51.454;7.194;2023-05-07T10:26:34;19.70;99.90
1391;DHT22;690;51.454;7.194;2023-05-07T10:29:05;19.70;99.90
1391;DHT22;690;51.454;7.194;2023-05-07T10:31:50;19.60;99.90
1391;DHT22;690;51.454;7.194;2023-05-07T10:34:21;19.40;99.90
1391;DHT22;690;51.454;7.194;2023-05-07T10:36:49;19.40;99.90
1391;DHT22;690;51.454;7.194;2023-05-07T10:39:17;19.30;99.90
1391;DHT22;690;51.454;7.194;2023-05-07T10:41:46;19.30;99.90
1391;DHT22;690;51.454;7.194;2023-05-07T10:44:25;19.50;99.90
1391;DHT22;690;51.454;7.194;2023-05-07T10:47:08;19.70;99.90
1391;DHT22;690;51.454;7.194;2023-05-07T10:49:36;19.80;99.90
1391;DHT22;690;51.454;7.194;2023-05-07T10:52:15;19.90;99.90
1391;DHT22;690;51.454;7.194;2023-05-07T10:54:43;20.10;99.90
1391;DHT22;690;51.454;7.194;2023-05-07T10:57:33;20.20;99.90
1391;DHT22;690;51.454;7.194;2023-05-07T11:00:01;20.20;99.90
1391;DHT22;690;51.454;7.194;2023-05-07T11:03:05;20.20;99.90
1391;DHT22;690;51.454;7.194;2023-05-07T11:05:34;20.10;99.90
1391;DHT22;690;51.454;7.194;2023-05-07T11:08:02;20.00;99.90
1391;DHT22;690;51.454;7.194;2023-05-07T11:10:48;20.00;99.90
1391;DHT22;690;51.454;7.194;2023-05-07T11:13:16;20.00;99.90
1391;DHT22;690;51.454;7.194;2023-05-07T11:15:44;20.00;99.90
1391;DHT22;690;51.454;7.194;2023-05-07T11:18:14;20.00;99.90
1391;DHT22;690;51.454;7.194;2023-05-07T11:20:45;20.10;99.90
1391;DHT22;690;51.454;7.194;2023-05-07T11:26:13;20.20;99.90
1391;DHT22;690;51.454;7.194;2023-05-07T11:28:51;20.40;99.90
1391;DHT22;690;51.454;7.194;2023-05-07T11:31:22;20.50;99.90
1391;DHT22;690;51.454;7.194;2023-05-07T11:33:52;20.60;99.90
1391;DHT22;690;51.454;7.194;2023-05-07T11:36:19;20.70;99.90
1391;DHT22;690;51.454;7.194;2023-05-07T11:38:47;20.80;99.90
1391;DHT22;690;51.454;7.194;2023-05-07T11:41:15;20.80;99.90
1391;DHT22;690;51.454;7.194;2023-05-07T11:43:56;21.00;99.90
1391;DHT22;690;51.454;7.194;2023-05-07T11:46:23;21.10;99.90
1391;DHT22;690;51.454;7.194;2023-05-07T11:48:52;21.10;99.90
1391;DHT22;690;51.454;7.194;2023-05-07T11:51:20;21.10;99.90
1391;DHT22;690;51.454;7.194;2023-05-07T11:53:47;21.00;99.90
1391;DHT22;690;51.454;7.194;2023-05-07T11:56:15;20.90;99.90
1391;DHT22;690;51.454;7.194;2023-05-07T11:58:44;20.90;99.90
1391;DHT22;690;51.454;7.194;2023-05-07T12:01:12;21.00;99.90
1391;DHT22;690;51.454;7.194;2023-05-07T12:03:45;21.00;99.90
1391;DHT22;690;51.454;7.194;2023-05-07T12:06:15;21.20;99.90
1391;DHT22;690;51.454;7.194;2023-05-07T12:08:44;21.30;99.90
1391;DHT22;690;51.454;7.194;2023-05-07T12:11:22;21.50;99.90
1391;DHT22;690;51.454;7.194;2023-05-07T12:13:49;21.70;99.90
1391;DHT22;690;51.454;7.194;2023-05-07T12:16:18;21.90;99.90
1391;DHT22;690;51.454;7.194;2023-05-07T12:18:46;22.10;99.90
1391;DHT22;690;51.454;7.194;2023-05-07T12:21:15;22.30;99.90
1391;DHT22;690;51.454;7.194;2023-05-07T12:23:42;22.40;99.90
1391;DHT22;690;51.454;7.194;2023-05-07T12:26:09;22.50;99.90
1391;DHT22;690;51.454;7.194;2023-05-07T12:28:37;22.50;99.90
1391;DHT22;690;51.454;7.194;2023-05-07T12:31:05;22.50;99.90
1391;DHT22;690;51.454;7.194;2023-05-07T12:33:33;22.60;99.90
1391;DHT22;690;51.454;7.194;2023-05-07T12:36:05;22.60;99.90
1391;DHT22;690;51.454;7.194;2023-05-07T12:38:36;22.70;99.90
1391;DHT22;690;51.454;7.194;2023-05-07T12:41:13;22.70;99.90
1391;DHT22;690;51.454;7.194;2023-05-07T12:43:44;22.80;99.90
1391;DHT22;690;51.454;7.194;2023-05-07T12:46:12;22.90;99.90
1391;DHT22;690;51.454;7.194;2023-05-07T12:48:49;23.10;99.90
1391;DHT22;690;51.454;7.194;2023-05-07T12:51:20;23.10;99.90
1391;DHT22;690;51.454;7.194;2023-05-07T12:53:50;23.00;99.90
1391;DHT22;690;51.454;7.194;2023-05-07T12:56:17;22.90;99.90
1391;DHT22;690;51.454;7.194;2023-05-07T12:58:51;22.70;99.90
1391;DHT22;690;51.454;7.194;2023-05-07T13:01:18;22.50;99.90
1391;DHT22;690;51.454;7.194;2023-05-07T13:03:48;22.30;99.90
1391;DHT22;690;51.454;7.194;2023-05-07T13:06:24;22.00;99.90
1391;DHT22;690;51.454;7.194;2023-05-07T13:08:55;21.80;99.90
1391;DHT22;690;51.454;7.194;2023-05-07T13:11:24;21.60;99.90
1391;DHT22;690;51.454;7.194;2023-05-07T13:13:52;21.50;99.90
1391;DHT22;690;51.454;7.194;2023-05-07T13:16:29;21.50;99.90
1391;DHT22;690;51.454;7.194;2023-05-07T13:19:00;21.20;99.90
1391;DHT22;690;51.454;7.194;2023-05-07T13:27:57;20.50;99.90
1391;DHT22;690;51.454;7.194;2023-05-07T13:30:24;20.10;99.90
1391;DHT22;690;51.454;7.194;2023-05-07T13:32:52;20.20;99.90
1391;DHT22;690;51.454;7.194;2023-05-07T13:35:18;20.30;99.90
1391;DHT22;690;51.454;7.194;2023-05-07T13:37:45;20.40;99.90
1391;DHT22;690;51.454;7.194;2023-05-07T13:40:13;20.60;99.90
1391;DHT22;690;51.454;7.194;2023-05-07T13:42:40;20.70;99.90
1391;DHT22;690;51.454;7.194;2023-05-07T13:45:09;20.80;99.90
1391;DHT22;690;51.454;7.194;2023-05-07T13:47:46;20.70;99.90
1391;DHT22;690;51.454;7.194;2023-05-07T13:50:15;20.80;99.90
1391;DHT22;690;51.454;7.194;2023-05-07T13:52:42;20.70;99.90
1391;DHT22;690;51.454;7.194;2023-05-07T13:55:13;20.70;99.90
1391;DHT22;690;51.454;7.194;2023-05-07T13:57:42;20.70;99.90
1391;DHT22;690;51.454;7.194;2023-05-07T14:00:11;20.80;99.90
1391;DHT22;690;51.454;7.194;2023-05-07T14:02:38;20.70;99.90
1391;DHT22;690;51.454;7.194;2023-05-07T14:05:06;20.60;99.90
1391;DHT22;690;51.454;7.194;2023-05-07T14:07:34;20.50;99.90
1391;DHT22;690;51.454;7.194;2023-05-07T14:10:01;20.60;99.90
1391;DHT22;690;51.454;7.194;2023-05-07T14:12:28;20.50;99.90
1391;DHT22;690;51.454;7.194;2023-05-07T14:14:55;20.40;99.90
1391;DHT22;690;51.454;7.194;2023-05-07T14:17:23;20.40;99.90
1391;DHT22;690;51.454;7.194;2023-05-07T14:19:52;20.20;99.90
1391;DHT22;690;51.454;7.194;2023-05-07T14:22:20;20.10;99.90
1391;DHT22;690;51.454;7.194;2023-05-07T14:24:51;20.00;99.90
1391;DHT22;690;51.454;7.194;2023-05-07T14:27:18;19.90;99.90
1391;DHT22;690;51.454;7.194;2023-05-07T14:29:51;19.80;99.90
1391;DHT22;690;51.454;7.194;2023-05-07T14:32:18;19.70;99.90
1391;DHT22;690;51.454;7.194;2023-05-07T14:34:46;19.60;99.90
1391;DHT22;690;51.454;7.194;2023-05-07T14:37:13;19.60;99.90
1391;DHT22;690;51.454;7.194;2023-05-07T14:39:40;19.60;99.90
1391;DHT22;690;51.454;7.194;2023-05-07T14:42:07;19.60;99.90
1391;DHT22;690;51.454;7.194;2023-05-07T14:44:34;19.50;99.90
1391;DHT22;690;51.454;7.194;2023-05-07T14:47:01;19.50;99.90
1391;DHT22;690;51.454;7.194;2023-05-07T14:49:28;19.50;99.90
1391;DHT22;690;51.454;7.194;2023-05-07T14:51:58;19.60;99.90
1391;DHT22;690;51.454;7.194;2023-05-07T14:54:26;19.70;99.90
1391;DHT22;690;51.454;7.194;2023-05-07T14:56:53;19.80;99.90
1391;DHT22;690;51.454;7.194;2023-05-07T14:59:20;19.80;99.90
1391;DHT22;690;51.454;7.194;2023-05-07T15:01:47;19.80;99.90
1391;DHT22;690;51.454;7.194;2023-05-07T15:04:14;19.70;99.90
1391;DHT22;690;51.454;7.194;2023-05-07T15:06:42;19.70;99.90
1391;DHT22;690;51.454;7.194;2023-05-07T15:09:10;19.80;99.90
1391;DHT22;690;51.454;7.194;2023-05-07T15:11:37;19.80;99.90
1391;DHT22;690;51.454;7.194;2023-05-07T15:14:04;19.90;99.90
1391;DHT22;690;51.454;7.194;2023-05-07T15:16:31;19.90;99.90
1391;DHT22;690;51.454;7.194;2023-05-07T15:18:58;19.80;99.90
1391;DHT22;690;51.454;7.194;2023-05-07T15:21:25;19.80;99.90
1391;DHT22;690;51.454;7.194;2023-05-07T15:23:52;19.80;99.90
1391;DHT22;690;51.454;7.194;2023-05-07T15:26:20;19.80;99.90
1391;DHT22;690;51.454;7.194;2023-05-07T15:28:47;19.90;99.90
1391;DHT22;690;51.454;7.194;2023-05-07T15:31:15;20.00;99.90
1391;DHT22;690;51.454;7.194;2023-05-07T15:33:42;20.00;99.90
1391;DHT22;690;51.454;7.194;2023-05-07T15:36:10;19.90;99.90
1391;DHT22;690;51.454;7.194;2023-05-07T15:38:37;19.90;99.90
1391;DHT22;690;51.454;7.194;2023-05-07T15:41:04;19.90;99.90
1391;DHT22;690;51.454;7.194;2023-05-07T15:43:32;20.00;99.90
1391;DHT22;690;51.454;7.194;2023-05-07T15:45:59;20.00;99.90
1391;DHT22;690;51.454;7.194;2023-05-07T15:48:26;20.00;99.90
1391;DHT22;690;51.454;7.194;2023-05-07T15:50:53;20.00;99.90
1391;DHT22;690;51.454;7.194;2023-05-07T15:53:20;20.10;99.90
1391;DHT22;690;51.454;7.194;2023-05-07T15:55:47;20.10;99.90
1391;DHT22;690;51.454;7.194;2023-05-07T15:58:24;20.10;99.90
1391;DHT22;690;51.454;7.194;2023-05-07T16:01:04;20.20;99.90
1391;DHT22;690;51.454;7.194;2023-05-07T16:03:32;20.40;99.90
1391;DHT22;690;51.454;7.194;2023-05-07T16:06:00;20.40;99.90
1391;DHT22;690;51.454;7.194;2023-05-07T16:08:37;20.40;99.90
1391;DHT22;690;51.454;7.194;2023-05-07T16:11:06;20.40;99.90
1391;DHT22;690;51.454;7.194;2023-05-07T16:13:45;20.60;99.90
1391;DHT22;690;51.454;7.194;2023-05-07T16:16:15;20.80;99.90
1391;DHT22;690;51.454;7.194;2023-05-07T16:18:49;20.90;99.90
1391;DHT22;690;51.454;7.194;2023-05-07T16:21:25;20.90;99.90
1391;DHT22;690;51.454;7.194;2023-05-07T16:23:58;20.90;99.90
1391;DHT22;690;51.454;7.194;2023-05-07T16:26:35;20.90;99.90
1391;DHT22;690;51.454;7.194;2023-05-07T16:29:05;20.80;99.90
1391;DHT22;690;51.454;7.194;2023-05-07T16:31:43;20.80;99.90
1391;DHT22;690;51.454;7.194;2023-05-07T16:34:20;20.80;99.90
1391;DHT22;690;51.454;7.194;2023-05-07T16:36:48;20.70;99.90
1391;DHT22;690;51.454;7.194;2023-05-07T16:39:15;20.70;99.90
1391;DHT22;690;51.454;7.194;2023-05-07T16:41:43;20.70;99.90
1391;DHT22;690;51.454;7.194;2023-05-07T16:44:13;20.60;99.90
1391;DHT22;690;51.454;7.194;2023-05-07T16:46:40;20.50;99.90